sensor_id;sensor_type;location;lat;lon;timestamp;P1;durP1;ratioP1;P2;durP2;ratioP2
30948;SDS011;17637;51.984;21.208;2022-10-22T00:02:26;37.92;;;27.65;;
30948;SDS011;17637;51.984;21.208;2022-10-22T00:04:53;36.58;;;25.48;;
30948;SDS011;17637;51.984;21.208;2022-10-22T00:07:22;33.28;;;24.55;;
30948;SDS011;17637;51.984;21.208;2022-10-22T00:09:49;33.70;;;23.58;;
30948;SDS011;17637;51.984;21.208;2022-10-22T00:12:17;33.33;;;24.25;;
30948;SDS011;17637;51.984;21.208;2022-10-22T00:14:44;36.97;;;27.05;;
30948;SDS011;17637;51.984;21.208;2022-10-22T00:17:12;35.03;;;25.08;;
30948;SDS011;17637;51.984;21.208;2022-10-22T00:19:39;34.40;;;24.80;;
30948;SDS011;17637;51.984;21.208;2022-10-22T00:22:07;38.42;;;25.92;;
30948;SDS011;17637;51.984;21.208;2022-10-22T00:24:36;37.08;;;27.20;;
30948;SDS011;17637;51.984;21.208;2022-10-22T00:29:34;36.28;;;25.92;;
30948;SDS011;17637;51.984;21.208;2022-10-22T00:32:03;37.75;;;27.55;;
30948;SDS011;17637;51.984;21.208;2022-10-22T00:34:31;36.22;;;26.13;;
30948;SDS011;17637;51.984;21.208;2022-10-22T00:36:58;45.25;;;30.65;;
30948;SDS011;17637;51.984;21.208;2022-10-22T00:39:26;46.50;;;32.33;;
30948;SDS011;17637;51.984;21.208;2022-10-22T00:41:55;39.60;;;28.13;;
30948;SDS011;17637;51.984;21.208;2022-10-22T00:47:30;42.15;;;28.25;;
30948;SDS011;17637;51.984;21.208;2022-10-22T00:50:01;37.55;;;27.08;;
30948;SDS011;17637;51.984;21.208;2022-10-22T00:52:33;38.63;;;26.52;;
30948;SDS011;17637;51.984;21.208;2022-10-22T00:55:01;42.72;;;30.17;;
30948;SDS011;17637;51.984;21.208;2022-10-22T00:57:28;39.65;;;28.63;;
30948;SDS011;17637;51.984;21.208;2022-10-22T00:59:57;44.67;;;32.72;;
30948;SDS011;17637;51.984;21.208;2022-10-22T01:02:24;42.05;;;30.65;;
30948;SDS011;17637;51.984;21.208;2022-10-22T01:04:51;35.58;;;25.73;;
30948;SDS011;17637;51.984;21.208;2022-10-22T01:07:20;39.65;;;29.20;;
30948;SDS011;17637;51.984;21.208;2022-10-22T01:09:58;34.03;;;25.67;;
30948;SDS011;17637;51.984;21.208;2022-10-22T01:17:34;41.65;;;28.90;;
30948;SDS011;17637;51.984;21.208;2022-10-22T01:30:35;38.55;;;28.38;;
30948;SDS011;17637;51.984;21.208;2022-10-22T01:33:05;45.88;;;32.58;;
30948;SDS011;17637;51.984;21.208;2022-10-22T01:35:36;37.58;;;29.23;;
30948;SDS011;17637;51.984;21.208;2022-10-22T01:38:06;38.83;;;28.13;;
30948;SDS011;17637;51.984;21.208;2022-10-22T01:40:36;37.92;;;28.52;;
30948;SDS011;17637;51.984;21.208;2022-10-22T01:43:06;43.35;;;32.42;;
30948;SDS011;17637;51.984;21.208;2022-10-22T01:45:35;46.25;;;31.08;;
30948;SDS011;17637;51.984;21.208;2022-10-22T01:57:19;44.40;;;32.40;;
30948;SDS011;17637;51.984;21.208;2022-10-22T02:05:32;47.28;;;33.13;;
30948;SDS011;17637;51.984;21.208;2022-10-22T02:08:04;44.95;;;33.20;;
30948;SDS011;17637;51.984;21.208;2022-10-22T02:10:38;45.15;;;33.20;;
30948;SDS011;17637;51.984;21.208;2022-10-22T02:13:10;40.58;;;30.23;;
30948;SDS011;17637;51.984;21.208;2022-10-22T02:15:39;41.30;;;28.90;;
30948;SDS011;17637;51.984;21.208;2022-10-22T02:18:11;43.80;;;31.50;;
30948;SDS011;17637;51.984;21.208;2022-10-22T02:20:40;50.35;;;34.65;;
30948;SDS011;17637;51.984;21.208;2022-10-22T02:23:08;39.63;;;29.52;;
30948;SDS011;17637;51.984;21.208;2022-10-22T02:25:37;42.63;;;31.67;;
30948;SDS011;17637;51.984;21.208;2022-10-22T02:28:11;40.58;;;30.67;;
30948;SDS011;17637;51.984;21.208;2022-10-22T02:31:00;40.08;;;28.83;;
30948;SDS011;17637;51.984;21.208;2022-10-22T02:33:36;48.30;;;35.45;;
30948;SDS011;17637;51.984;21.208;2022-10-22T02:36:08;52.03;;;36.90;;
30948;SDS011;17637;51.984;21.208;2022-10-22T02:38:35;49.95;;;35.60;;
30948;SDS011;17637;51.984;21.208;2022-10-22T02:41:04;55.67;;;38.38;;
30948;SDS011;17637;51.984;21.208;2022-10-22T02:43:37;79.40;;;49.30;;
30948;SDS011;17637;51.984;21.208;2022-10-22T02:46:07;66.00;;;43.78;;
30948;SDS011;17637;51.984;21.208;2022-10-22T02:48:35;52.03;;;36.70;;
30948;SDS011;17637;51.984;21.208;2022-10-22T02:51:03;60.63;;;40.25;;
30948;SDS011;17637;51.984;21.208;2022-10-22T02:53:30;47.65;;;32.95;;
30948;SDS011;17637;51.984;21.208;2022-10-22T02:55:57;41.17;;;30.02;;
30948;SDS011;17637;51.984;21.208;2022-10-22T02:58:25;37.28;;;28.98;;
30948;SDS011;17637;51.984;21.208;2022-10-22T03:00:52;48.08;;;33.55;;
30948;SDS011;17637;51.984;21.208;2022-10-22T03:03:19;51.78;;;35.92;;
30948;SDS011;17637;51.984;21.208;2022-10-22T03:05:46;54.83;;;38.80;;
30948;SDS011;17637;51.984;21.208;2022-10-22T03:08:13;43.63;;;30.60;;
30948;SDS011;17637;51.984;21.208;2022-10-22T03:10:40;87.10;;;52.85;;
30948;SDS011;17637;51.984;21.208;2022-10-22T03:13:07;55.78;;;39.60;;
30948;SDS011;17637;51.984;21.208;2022-10-22T03:15:34;52.00;;;34.67;;
30948;SDS011;17637;51.984;21.208;2022-10-22T03:18:01;62.38;;;38.67;;
30948;SDS011;17637;51.984;21.208;2022-10-22T03:20:28;58.90;;;37.55;;
30948;SDS011;17637;51.984;21.208;2022-10-22T03:22:55;51.95;;;35.40;;
30948;SDS011;17637;51.984;21.208;2022-10-22T03:25:24;70.45;;;44.88;;
30948;SDS011;17637;51.984;21.208;2022-10-22T03:27:53;69.25;;;43.05;;
30948;SDS011;17637;51.984;21.208;2022-10-22T03:30:22;52.33;;;36.00;;
30948;SDS011;17637;51.984;21.208;2022-10-22T03:32:49;63.20;;;40.35;;
30948;SDS011;17637;51.984;21.208;2022-10-22T03:35:16;70.82;;;42.33;;
30948;SDS011;17637;51.984;21.208;2022-10-22T03:37:43;65.80;;;41.80;;
30948;SDS011;17637;51.984;21.208;2022-10-22T03:40:11;58.80;;;37.88;;
30948;SDS011;17637;51.984;21.208;2022-10-22T03:42:39;52.28;;;35.72;;
30948;SDS011;17637;51.984;21.208;2022-10-22T03:45:07;47.60;;;32.17;;
30948;SDS011;17637;51.984;21.208;2022-10-22T03:47:35;46.58;;;33.05;;
30948;SDS011;17637;51.984;21.208;2022-10-22T03:50:03;42.83;;;30.35;;
30948;SDS011;17637;51.984;21.208;2022-10-22T03:52:35;62.13;;;37.63;;
30948;SDS011;17637;51.984;21.208;2022-10-22T03:55:03;57.30;;;36.38;;
30948;SDS011;17637;51.984;21.208;2022-10-22T03:57:32;59.38;;;37.58;;
30948;SDS011;17637;51.984;21.208;2022-10-22T03:59:59;44.22;;;31.25;;
30948;SDS011;17637;51.984;21.208;2022-10-22T04:02:26;53.17;;;33.70;;
30948;SDS011;17637;51.984;21.208;2022-10-22T04:04:53;61.28;;;38.78;;
30948;SDS011;17637;51.984;21.208;2022-10-22T04:07:20;57.47;;;36.80;;
30948;SDS011;17637;51.984;21.208;2022-10-22T04:09:47;55.28;;;36.08;;
30948;SDS011;17637;51.984;21.208;2022-10-22T04:12:14;52.90;;;37.17;;
30948;SDS011;17637;51.984;21.208;2022-10-22T04:14:41;81.57;;;50.90;;
30948;SDS011;17637;51.984;21.208;2022-10-22T04:17:08;70.38;;;47.63;;
30948;SDS011;17637;51.984;21.208;2022-10-22T04:19:35;74.10;;;46.20;;
30948;SDS011;17637;51.984;21.208;2022-10-22T04:22:02;48.25;;;32.70;;
30948;SDS011;17637;51.984;21.208;2022-10-22T04:24:30;67.25;;;40.65;;
30948;SDS011;17637;51.984;21.208;2022-10-22T04:26:57;44.28;;;31.10;;
30948;SDS011;17637;51.984;21.208;2022-10-22T04:29:24;47.13;;;31.63;;
30948;SDS011;17637;51.984;21.208;2022-10-22T04:31:52;39.83;;;30.02;;
30948;SDS011;17637;51.984;21.208;2022-10-22T04:34:19;56.75;;;36.75;;
30948;SDS011;17637;51.984;21.208;2022-10-22T04:36:46;52.72;;;33.58;;
30948;SDS011;17637;51.984;21.208;2022-10-22T04:39:13;42.97;;;30.48;;
30948;SDS011;17637;51.984;21.208;2022-10-22T04:41:41;59.55;;;38.85;;
30948;SDS011;17637;51.984;21.208;2022-10-22T04:44:08;53.70;;;35.53;;
30948;SDS011;17637;51.984;21.208;2022-10-22T04:46:41;55.05;;;35.30;;
30948;SDS011;17637;51.984;21.208;2022-10-22T04:49:08;56.08;;;35.42;;
30948;SDS011;17637;51.984;21.208;2022-10-22T04:51:35;61.22;;;38.00;;
30948;SDS011;17637;51.984;21.208;2022-10-22T04:54:02;53.22;;;34.63;;
30948;SDS011;17637;51.984;21.208;2022-10-22T04:56:30;55.22;;;37.17;;
30948;SDS011;17637;51.984;21.208;2022-10-22T04:58:59;61.65;;;38.13;;
30948;SDS011;17637;51.984;21.208;2022-10-22T05:04:10;77.40;;;44.00;;
30948;SDS011;17637;51.984;21.208;2022-10-22T05:06:38;79.60;;;45.40;;
30948;SDS011;17637;51.984;21.208;2022-10-22T05:09:15;55.63;;;36.20;;
30948;SDS011;17637;51.984;21.208;2022-10-22T05:11:45;52.33;;;35.35;;
30948;SDS011;17637;51.984;21.208;2022-10-22T05:14:21;53.43;;;33.63;;
30948;SDS011;17637;51.984;21.208;2022-10-22T05:16:50;49.42;;;33.88;;
30948;SDS011;17637;51.984;21.208;2022-10-22T05:19:27;52.65;;;34.28;;
30948;SDS011;17637;51.984;21.208;2022-10-22T05:21:57;51.85;;;35.08;;
30948;SDS011;17637;51.984;21.208;2022-10-22T05:24:26;50.88;;;34.58;;
30948;SDS011;17637;51.984;21.208;2022-10-22T05:26:55;54.13;;;34.58;;
30948;SDS011;17637;51.984;21.208;2022-10-22T05:29:24;59.67;;;40.35;;
30948;SDS011;17637;51.984;21.208;2022-10-22T05:31:51;49.25;;;36.08;;
30948;SDS011;17637;51.984;21.208;2022-10-22T05:34:19;52.58;;;36.83;;
30948;SDS011;17637;51.984;21.208;2022-10-22T05:36:46;72.53;;;44.55;;
30948;SDS011;17637;51.984;21.208;2022-10-22T05:39:13;45.22;;;33.30;;
30948;SDS011;17637;51.984;21.208;2022-10-22T05:41:40;50.50;;;35.72;;
30948;SDS011;17637;51.984;21.208;2022-10-22T05:44:09;54.70;;;34.92;;
30948;SDS011;17637;51.984;21.208;2022-10-22T05:46:37;45.90;;;33.22;;
30948;SDS011;17637;51.984;21.208;2022-10-22T05:49:05;51.53;;;35.05;;
30948;SDS011;17637;51.984;21.208;2022-10-22T05:51:33;56.88;;;37.33;;
30948;SDS011;17637;51.984;21.208;2022-10-22T05:54:03;54.40;;;37.57;;
30948;SDS011;17637;51.984;21.208;2022-10-22T05:56:33;62.15;;;45.45;;
30948;SDS011;17637;51.984;21.208;2022-10-22T05:59:04;60.83;;;40.97;;
30948;SDS011;17637;51.984;21.208;2022-10-22T06:01:31;45.77;;;32.63;;
30948;SDS011;17637;51.984;21.208;2022-10-22T06:04:02;46.43;;;33.97;;
30948;SDS011;17637;51.984;21.208;2022-10-22T06:06:32;45.27;;;31.40;;
30948;SDS011;17637;51.984;21.208;2022-10-22T06:09:15;49.63;;;35.33;;
30948;SDS011;17637;51.984;21.208;2022-10-22T06:11:43;58.22;;;37.35;;
30948;SDS011;17637;51.984;21.208;2022-10-22T06:14:11;54.22;;;36.47;;
30948;SDS011;17637;51.984;21.208;2022-10-22T06:16:38;47.25;;;32.83;;
30948;SDS011;17637;51.984;21.208;2022-10-22T06:19:06;50.22;;;34.15;;
30948;SDS011;17637;51.984;21.208;2022-10-22T06:21:33;53.60;;;34.92;;
30948;SDS011;17637;51.984;21.208;2022-10-22T06:24:00;46.03;;;33.35;;
30948;SDS011;17637;51.984;21.208;2022-10-22T06:26:28;40.08;;;28.80;;
30948;SDS011;17637;51.984;21.208;2022-10-22T06:28:56;52.47;;;36.28;;
30948;SDS011;17637;51.984;21.208;2022-10-22T06:31:24;54.92;;;36.97;;
30948;SDS011;17637;51.984;21.208;2022-10-22T06:33:52;50.45;;;35.20;;
30948;SDS011;17637;51.984;21.208;2022-10-22T06:36:20;45.40;;;32.22;;
30948;SDS011;17637;51.984;21.208;2022-10-22T06:38:52;39.20;;;28.50;;
30948;SDS011;17637;51.984;21.208;2022-10-22T06:41:21;46.60;;;34.25;;
30948;SDS011;17637;51.984;21.208;2022-10-22T06:43:54;54.15;;;37.17;;
30948;SDS011;17637;51.984;21.208;2022-10-22T06:46:23;40.15;;;30.65;;
30948;SDS011;17637;51.984;21.208;2022-10-22T06:48:52;42.13;;;30.05;;
30948;SDS011;17637;51.984;21.208;2022-10-22T06:51:21;38.55;;;28.48;;
30948;SDS011;17637;51.984;21.208;2022-10-22T06:53:48;42.38;;;31.05;;
30948;SDS011;17637;51.984;21.208;2022-10-22T06:56:17;41.78;;;29.70;;
30948;SDS011;17637;51.984;21.208;2022-10-22T06:58:46;35.63;;;26.92;;
30948;SDS011;17637;51.984;21.208;2022-10-22T07:01:15;37.85;;;28.05;;
30948;SDS011;17637;51.984;21.208;2022-10-22T07:03:43;39.00;;;29.50;;
30948;SDS011;17637;51.984;21.208;2022-10-22T07:06:11;41.22;;;29.42;;
30948;SDS011;17637;51.984;21.208;2022-10-22T07:08:40;37.25;;;28.10;;
30948;SDS011;17637;51.984;21.208;2022-10-22T07:13:35;37.97;;;27.05;;
30948;SDS011;17637;51.984;21.208;2022-10-22T07:16:03;36.50;;;25.83;;
30948;SDS011;17637;51.984;21.208;2022-10-22T07:18:32;32.42;;;24.98;;
30948;SDS011;17637;51.984;21.208;2022-10-22T07:21:00;34.10;;;26.15;;
30948;SDS011;17637;51.984;21.208;2022-10-22T07:23:27;34.92;;;25.88;;
30948;SDS011;17637;51.984;21.208;2022-10-22T07:25:55;32.78;;;24.50;;
30948;SDS011;17637;51.984;21.208;2022-10-22T07:28:42;33.38;;;23.67;;
30948;SDS011;17637;51.984;21.208;2022-10-22T07:31:10;33.50;;;22.90;;
30948;SDS011;17637;51.984;21.208;2022-10-22T07:33:38;34.72;;;24.33;;
30948;SDS011;17637;51.984;21.208;2022-10-22T07:36:07;33.83;;;25.13;;
30948;SDS011;17637;51.984;21.208;2022-10-22T07:38:35;25.98;;;20.25;;
30948;SDS011;17637;51.984;21.208;2022-10-22T07:41:03;27.23;;;21.27;;
30948;SDS011;17637;51.984;21.208;2022-10-22T07:43:30;28.50;;;22.30;;
30948;SDS011;17637;51.984;21.208;2022-10-22T07:45:57;27.50;;;20.30;;
30948;SDS011;17637;51.984;21.208;2022-10-22T07:48:25;26.63;;;20.85;;
30948;SDS011;17637;51.984;21.208;2022-10-22T07:50:53;30.63;;;20.85;;
30948;SDS011;17637;51.984;21.208;2022-10-22T07:53:20;29.50;;;21.20;;
30948;SDS011;17637;51.984;21.208;2022-10-22T07:55:48;32.15;;;22.23;;
30948;SDS011;17637;51.984;21.208;2022-10-22T07:58:16;29.80;;;22.90;;
30948;SDS011;17637;51.984;21.208;2022-10-22T08:00:44;29.00;;;23.55;;
30948;SDS011;17637;51.984;21.208;2022-10-22T08:03:12;29.23;;;22.55;;
30948;SDS011;17637;51.984;21.208;2022-10-22T08:05:40;31.55;;;23.20;;
30948;SDS011;17637;51.984;21.208;2022-10-22T08:08:10;30.30;;;21.23;;
30948;SDS011;17637;51.984;21.208;2022-10-22T08:10:38;29.92;;;22.10;;
30948;SDS011;17637;51.984;21.208;2022-10-22T08:13:05;34.47;;;21.63;;
30948;SDS011;17637;51.984;21.208;2022-10-22T08:15:33;26.92;;;22.05;;
30948;SDS011;17637;51.984;21.208;2022-10-22T08:18:00;31.08;;;23.33;;
30948;SDS011;17637;51.984;21.208;2022-10-22T08:20:27;35.33;;;24.70;;
30948;SDS011;17637;51.984;21.208;2022-10-22T08:22:55;31.40;;;23.42;;
30948;SDS011;17637;51.984;21.208;2022-10-22T08:25:21;31.10;;;23.55;;
30948;SDS011;17637;51.984;21.208;2022-10-22T08:27:49;28.00;;;21.27;;
30948;SDS011;17637;51.984;21.208;2022-10-22T08:30:16;23.48;;;19.00;;
30948;SDS011;17637;51.984;21.208;2022-10-22T08:32:43;28.10;;;21.75;;
30948;SDS011;17637;51.984;21.208;2022-10-22T08:35:10;27.33;;;20.75;;
30948;SDS011;17637;51.984;21.208;2022-10-22T08:37:42;32.08;;;21.40;;
30948;SDS011;17637;51.984;21.208;2022-10-22T08:40:09;24.33;;;19.50;;
30948;SDS011;17637;51.984;21.208;2022-10-22T08:50:53;21.90;;;18.15;;
30948;SDS011;17637;51.984;21.208;2022-10-22T08:56:20;26.80;;;18.13;;
30948;SDS011;17637;51.984;21.208;2022-10-22T08:58:51;21.02;;;16.35;;
30948;SDS011;17637;51.984;21.208;2022-10-22T09:01:28;25.42;;;17.60;;
30948;SDS011;17637;51.984;21.208;2022-10-22T09:04:05;24.15;;;18.98;;
30948;SDS011;17637;51.984;21.208;2022-10-22T09:06:34;20.17;;;17.00;;
30948;SDS011;17637;51.984;21.208;2022-10-22T09:09:08;24.67;;;19.85;;
30948;SDS011;17637;51.984;21.208;2022-10-22T09:11:43;28.85;;;17.83;;
30948;SDS011;17637;51.984;21.208;2022-10-22T09:14:19;24.70;;;18.67;;
30948;SDS011;17637;51.984;21.208;2022-10-22T09:17:10;30.08;;;21.50;;
30948;SDS011;17637;51.984;21.208;2022-10-22T09:19:45;25.65;;;19.67;;
30948;SDS011;17637;51.984;21.208;2022-10-22T09:22:30;26.42;;;17.38;;
30948;SDS011;17637;51.984;21.208;2022-10-22T09:25:18;33.30;;;21.60;;
30948;SDS011;17637;51.984;21.208;2022-10-22T09:27:47;28.33;;;18.48;;
30948;SDS011;17637;51.984;21.208;2022-10-22T09:30:16;22.45;;;16.73;;
30948;SDS011;17637;51.984;21.208;2022-10-22T09:32:45;20.52;;;15.70;;
30948;SDS011;17637;51.984;21.208;2022-10-22T09:35:20;24.77;;;17.52;;
30948;SDS011;17637;51.984;21.208;2022-10-22T09:37:49;22.35;;;16.90;;
30948;SDS011;17637;51.984;21.208;2022-10-22T09:40:17;22.80;;;17.00;;
30948;SDS011;17637;51.984;21.208;2022-10-22T09:42:46;26.45;;;18.40;;
30948;SDS011;17637;51.984;21.208;2022-10-22T09:45:17;24.88;;;18.65;;
30948;SDS011;17637;51.984;21.208;2022-10-22T09:47:47;24.02;;;16.60;;
30948;SDS011;17637;51.984;21.208;2022-10-22T09:50:28;25.80;;;17.33;;
30948;SDS011;17637;51.984;21.208;2022-10-22T09:55:40;24.08;;;17.98;;
30948;SDS011;17637;51.984;21.208;2022-10-22T09:58:09;24.98;;;18.83;;
30948;SDS011;17637;51.984;21.208;2022-10-22T10:00:42;26.42;;;19.17;;
30948;SDS011;17637;51.984;21.208;2022-10-22T10:03:14;31.25;;;20.38;;
30948;SDS011;17637;51.984;21.208;2022-10-22T10:05:49;23.52;;;17.48;;
30948;SDS011;17637;51.984;21.208;2022-10-22T10:08:19;25.50;;;16.92;;
30948;SDS011;17637;51.984;21.208;2022-10-22T10:10:54;22.70;;;17.10;;
30948;SDS011;17637;51.984;21.208;2022-10-22T10:21:35;24.50;;;17.83;;
30948;SDS011;17637;51.984;21.208;2022-10-22T10:30:04;22.50;;;15.50;;
30948;SDS011;17637;51.984;21.208;2022-10-22T10:45:13;29.70;;;21.25;;
30948;SDS011;17637;51.984;21.208;2022-10-22T10:48:09;23.20;;;17.83;;
30948;SDS011;17637;51.984;21.208;2022-10-22T10:58:51;23.88;;;17.98;;
30948;SDS011;17637;51.984;21.208;2022-10-22T11:01:36;24.92;;;18.77;;
30948;SDS011;17637;51.984;21.208;2022-10-22T11:07:23;27.63;;;18.75;;
30948;SDS011;17637;51.984;21.208;2022-10-22T11:10:07;39.25;;;28.25;;
30948;SDS011;17637;51.984;21.208;2022-10-22T11:12:50;70.15;;;44.20;;
30948;SDS011;17637;51.984;21.208;2022-10-22T11:15:35;48.50;;;34.92;;
30948;SDS011;17637;51.984;21.208;2022-10-22T11:18:27;50.70;;;33.25;;
30948;SDS011;17637;51.984;21.208;2022-10-22T11:23:43;35.65;;;23.85;;
30948;SDS011;17637;51.984;21.208;2022-10-22T11:29:04;41.55;;;32.47;;
30948;SDS011;17637;51.984;21.208;2022-10-22T11:31:36;36.30;;;26.80;;
30948;SDS011;17637;51.984;21.208;2022-10-22T11:36:58;30.38;;;20.90;;
30948;SDS011;17637;51.984;21.208;2022-10-22T11:39:27;25.38;;;19.23;;
30948;SDS011;17637;51.984;21.208;2022-10-22T11:42:02;27.63;;;20.48;;
30948;SDS011;17637;51.984;21.208;2022-10-22T12:03:39;29.02;;;19.92;;
30948;SDS011;17637;51.984;21.208;2022-10-22T12:11:36;24.48;;;18.13;;
30948;SDS011;17637;51.984;21.208;2022-10-22T12:14:15;24.90;;;19.08;;
30948;SDS011;17637;51.984;21.208;2022-10-22T12:19:39;22.15;;;17.92;;
30948;SDS011;17637;51.984;21.208;2022-10-22T12:24:36;23.02;;;18.40;;
30948;SDS011;17637;51.984;21.208;2022-10-22T12:27:25;32.15;;;20.80;;
30948;SDS011;17637;51.984;21.208;2022-10-22T12:29:56;29.58;;;20.73;;
30948;SDS011;17637;51.984;21.208;2022-10-22T12:32:35;26.77;;;20.00;;
30948;SDS011;17637;51.984;21.208;2022-10-22T12:35:05;26.45;;;18.67;;
30948;SDS011;17637;51.984;21.208;2022-10-22T12:37:37;23.65;;;17.60;;
30948;SDS011;17637;51.984;21.208;2022-10-22T12:40:23;25.08;;;17.75;;
30948;SDS011;17637;51.984;21.208;2022-10-22T12:42:56;30.38;;;20.23;;
30948;SDS011;17637;51.984;21.208;2022-10-22T12:45:26;25.80;;;19.55;;
30948;SDS011;17637;51.984;21.208;2022-10-22T12:47:55;26.13;;;19.80;;
30948;SDS011;17637;51.984;21.208;2022-10-22T12:50:30;25.33;;;19.30;;
30948;SDS011;17637;51.984;21.208;2022-10-22T12:52:59;27.02;;;18.90;;
30948;SDS011;17637;51.984;21.208;2022-10-22T12:55:26;25.83;;;20.08;;
30948;SDS011;17637;51.984;21.208;2022-10-22T12:57:58;26.67;;;20.30;;
30948;SDS011;17637;51.984;21.208;2022-10-22T13:00:27;28.27;;;20.38;;
30948;SDS011;17637;51.984;21.208;2022-10-22T13:03:01;28.45;;;21.48;;
30948;SDS011;17637;51.984;21.208;2022-10-22T13:05:32;28.45;;;22.25;;
30948;SDS011;17637;51.984;21.208;2022-10-22T13:08:08;25.77;;;21.02;;
30948;SDS011;17637;51.984;21.208;2022-10-22T13:10:39;30.90;;;23.98;;
30948;SDS011;17637;51.984;21.208;2022-10-22T13:13:28;37.33;;;26.60;;
30948;SDS011;17637;51.984;21.208;2022-10-22T13:18:51;36.70;;;25.85;;
30948;SDS011;17637;51.984;21.208;2022-10-22T13:21:34;33.38;;;23.30;;
30948;SDS011;17637;51.984;21.208;2022-10-22T13:24:21;31.42;;;23.38;;
30948;SDS011;17637;51.984;21.208;2022-10-22T13:26:50;33.17;;;23.73;;
30948;SDS011;17637;51.984;21.208;2022-10-22T13:29:20;35.60;;;23.57;;
30948;SDS011;17637;51.984;21.208;2022-10-22T13:31:50;32.75;;;24.38;;
30948;SDS011;17637;51.984;21.208;2022-10-22T13:34:19;31.88;;;23.95;;
30948;SDS011;17637;51.984;21.208;2022-10-22T13:36:48;35.60;;;25.25;;
30948;SDS011;17637;51.984;21.208;2022-10-22T13:39:17;36.20;;;24.60;;
30948;SDS011;17637;51.984;21.208;2022-10-22T13:41:44;36.40;;;23.77;;
30948;SDS011;17637;51.984;21.208;2022-10-22T13:44:11;35.45;;;23.75;;
30948;SDS011;17637;51.984;21.208;2022-10-22T13:46:38;36.67;;;22.95;;
30948;SDS011;17637;51.984;21.208;2022-10-22T13:49:18;37.17;;;24.23;;
30948;SDS011;17637;51.984;21.208;2022-10-22T13:51:48;33.45;;;23.23;;
30948;SDS011;17637;51.984;21.208;2022-10-22T13:54:17;31.67;;;21.58;;
30948;SDS011;17637;51.984;21.208;2022-10-22T13:56:46;28.00;;;21.23;;
30948;SDS011;17637;51.984;21.208;2022-10-22T13:59:14;42.13;;;25.17;;
30948;SDS011;17637;51.984;21.208;2022-10-22T14:01:46;35.10;;;25.88;;
30948;SDS011;17637;51.984;21.208;2022-10-22T14:04:13;34.85;;;25.70;;
30948;SDS011;17637;51.984;21.208;2022-10-22T14:06:41;37.95;;;27.42;;
30948;SDS011;17637;51.984;21.208;2022-10-22T14:09:10;38.55;;;26.70;;
30948;SDS011;17637;51.984;21.208;2022-10-22T14:11:40;36.22;;;26.40;;
30948;SDS011;17637;51.984;21.208;2022-10-22T14:14:08;32.10;;;23.63;;
30948;SDS011;17637;51.984;21.208;2022-10-22T14:16:39;34.42;;;24.98;;
30948;SDS011;17637;51.984;21.208;2022-10-22T14:19:08;34.22;;;25.38;;
30948;SDS011;17637;51.984;21.208;2022-10-22T14:21:40;36.40;;;25.25;;
30948;SDS011;17637;51.984;21.208;2022-10-22T14:24:08;32.90;;;23.40;;
30948;SDS011;17637;51.984;21.208;2022-10-22T14:26:38;34.80;;;26.02;;
30948;SDS011;17637;51.984;21.208;2022-10-22T14:29:06;33.83;;;25.20;;
30948;SDS011;17637;51.984;21.208;2022-10-22T14:31:40;34.33;;;24.27;;
30948;SDS011;17637;51.984;21.208;2022-10-22T14:34:10;37.38;;;26.23;;
30948;SDS011;17637;51.984;21.208;2022-10-22T14:36:38;31.98;;;24.80;;
30948;SDS011;17637;51.984;21.208;2022-10-22T14:39:05;43.75;;;31.10;;
30948;SDS011;17637;51.984;21.208;2022-10-22T14:41:33;42.70;;;31.15;;
30948;SDS011;17637;51.984;21.208;2022-10-22T14:44:00;41.92;;;27.10;;
30948;SDS011;17637;51.984;21.208;2022-10-22T14:46:27;39.25;;;26.58;;
30948;SDS011;17637;51.984;21.208;2022-10-22T14:48:55;36.30;;;26.10;;
30948;SDS011;17637;51.984;21.208;2022-10-22T14:51:22;31.90;;;23.15;;
30948;SDS011;17637;51.984;21.208;2022-10-22T14:53:49;39.63;;;24.35;;
30948;SDS011;17637;51.984;21.208;2022-10-22T14:56:17;36.70;;;24.63;;
30948;SDS011;17637;51.984;21.208;2022-10-22T15:01:13;41.65;;;29.58;;
30948;SDS011;17637;51.984;21.208;2022-10-22T15:03:41;53.63;;;36.00;;
30948;SDS011;17637;51.984;21.208;2022-10-22T15:06:08;58.17;;;35.20;;
30948;SDS011;17637;51.984;21.208;2022-10-22T15:08:35;56.25;;;33.75;;
30948;SDS011;17637;51.984;21.208;2022-10-22T15:11:04;47.17;;;31.50;;
30948;SDS011;17637;51.984;21.208;2022-10-22T15:13:36;53.05;;;31.88;;
30948;SDS011;17637;51.984;21.208;2022-10-22T15:16:05;47.58;;;30.58;;
30948;SDS011;17637;51.984;21.208;2022-10-22T15:18:33;46.00;;;29.25;;
30948;SDS011;17637;51.984;21.208;2022-10-22T15:21:01;62.03;;;36.90;;
30948;SDS011;17637;51.984;21.208;2022-10-22T15:23:30;74.40;;;40.08;;
30948;SDS011;17637;51.984;21.208;2022-10-22T15:25:57;70.05;;;43.65;;
30948;SDS011;17637;51.984;21.208;2022-10-22T15:28:24;66.20;;;40.58;;
30948;SDS011;17637;51.984;21.208;2022-10-22T15:30:55;69.53;;;44.03;;
30948;SDS011;17637;51.984;21.208;2022-10-22T15:33:25;50.45;;;35.10;;
30948;SDS011;17637;51.984;21.208;2022-10-22T15:35:54;49.65;;;34.30;;
30948;SDS011;17637;51.984;21.208;2022-10-22T15:38:25;50.42;;;36.08;;
30948;SDS011;17637;51.984;21.208;2022-10-22T15:41:02;58.10;;;39.30;;
30948;SDS011;17637;51.984;21.208;2022-10-22T15:43:31;48.53;;;34.22;;
30948;SDS011;17637;51.984;21.208;2022-10-22T15:46:09;49.42;;;33.92;;
30948;SDS011;17637;51.984;21.208;2022-10-22T15:48:36;44.70;;;32.95;;
30948;SDS011;17637;51.984;21.208;2022-10-22T15:51:10;43.78;;;30.42;;
30948;SDS011;17637;51.984;21.208;2022-10-22T15:53:40;51.13;;;34.50;;
30948;SDS011;17637;51.984;21.208;2022-10-22T15:56:08;44.85;;;31.80;;
30948;SDS011;17637;51.984;21.208;2022-10-22T15:58:38;42.72;;;30.15;;
30948;SDS011;17637;51.984;21.208;2022-10-22T16:01:06;49.58;;;33.10;;
30948;SDS011;17637;51.984;21.208;2022-10-22T16:03:34;53.13;;;34.65;;
30948;SDS011;17637;51.984;21.208;2022-10-22T16:06:02;47.42;;;31.58;;
30948;SDS011;17637;51.984;21.208;2022-10-22T16:08:29;45.00;;;30.55;;
30948;SDS011;17637;51.984;21.208;2022-10-22T16:10:57;46.05;;;32.42;;
30948;SDS011;17637;51.984;21.208;2022-10-22T16:13:24;43.25;;;31.08;;
30948;SDS011;17637;51.984;21.208;2022-10-22T16:15:52;47.22;;;32.40;;
30948;SDS011;17637;51.984;21.208;2022-10-22T16:18:19;46.85;;;34.15;;
30948;SDS011;17637;51.984;21.208;2022-10-22T16:20:47;44.78;;;32.15;;
30948;SDS011;17637;51.984;21.208;2022-10-22T16:23:14;54.88;;;37.22;;
30948;SDS011;17637;51.984;21.208;2022-10-22T16:25:44;46.97;;;32.95;;
30948;SDS011;17637;51.984;21.208;2022-10-22T16:28:12;47.67;;;34.10;;
30948;SDS011;17637;51.984;21.208;2022-10-22T16:30:39;49.50;;;32.63;;
30948;SDS011;17637;51.984;21.208;2022-10-22T16:33:07;44.58;;;29.83;;
30948;SDS011;17637;51.984;21.208;2022-10-22T16:35:41;57.15;;;38.40;;
30948;SDS011;17637;51.984;21.208;2022-10-22T16:38:08;60.08;;;41.67;;
30948;SDS011;17637;51.984;21.208;2022-10-22T16:40:37;65.40;;;48.88;;
30948;SDS011;17637;51.984;21.208;2022-10-22T16:43:04;53.67;;;39.97;;